createdAt,value
2023-03-20T00:02:23.382Z,42.70
2023-03-20T00:04:52.178Z,43.09
2023-03-20T00:07:20.302Z,42.67
2023-03-20T00:09:49.739Z,42.66
2023-03-20T00:12:23.675Z,42.64
2023-03-20T00:14:51.980Z,42.69
2023-03-20T00:17:21.465Z,42.99
2023-03-20T00:19:49.760Z,43.16
2023-03-20T00:22:17.990Z,43.70
2023-03-20T00:24:46.522Z,43.41
2023-03-20T00:27:16.824Z,43.48
2023-03-20T00:29:44.982Z,43.93
2023-03-20T00:32:14.321Z,42.95
2023-03-20T00:34:43.068Z,44.12
2023-03-20T00:37:12.089Z,42.95
2023-03-20T00:39:41.561Z,43.57
2023-03-20T00:42:21.887Z,44.62
2023-03-20T00:44:55.129Z,44.42
2023-03-20T00:47:25.882Z,44.88
2023-03-20T00:49:56.212Z,46.02
2023-03-20T00:52:24.975Z,46.39
2023-03-20T00:54:53.345Z,45.93
2023-03-20T00:57:28.723Z,46.20
2023-03-20T01:00:14.823Z,46.00
2023-03-20T01:02:46.212Z,45.94
2023-03-20T01:05:14.873Z,50.11
2023-03-20T01:07:43.411Z,50.04
2023-03-20T01:10:13.091Z,51.34
2023-03-20T01:12:42.039Z,51.17
2023-03-20T01:15:26.217Z,53.67
2023-03-20T01:17:54.353Z,53.23
2023-03-20T01:20:28.805Z,53.55
2023-03-20T01:22:57.197Z,53.07
2023-03-20T01:25:26.088Z,52.80
2023-03-20T01:27:55.086Z,51.83
2023-03-20T01:30:29.185Z,52.79
2023-03-20T01:32:58.417Z,55.46
2023-03-20T01:35:28.067Z,58.50
2023-03-20T01:37:56.650Z,55.66
2023-03-20T01:40:33.972Z,58.36
2023-03-20T01:43:03.800Z,57.63
2023-03-20T01:45:36.426Z,54.87
2023-03-20T01:48:17.910Z,55.29
2023-03-20T01:50:46.556Z,57.33
2023-03-20T01:53:22.036Z,54.20
2023-03-20T01:55:52.133Z,58.32
2023-03-20T01:58:25.214Z,55.77
2023-03-20T02:00:53.897Z,58.30
2023-03-20T02:03:22.674Z,57.38
2023-03-20T02:05:55.840Z,56.21
2023-03-20T02:08:29.280Z,55.42
2023-03-20T02:11:00.381Z,55.81
2023-03-20T02:13:31.502Z,58.96
2023-03-20T02:16:12.902Z,60.29
2023-03-20T02:18:44.990Z,60.32
2023-03-20T02:21:41.268Z,57.51
2023-03-20T02:24:33.726Z,58.75
2023-03-20T02:27:14.557Z,56.53
2023-03-20T02:30:07.961Z,59.20
2023-03-20T02:33:14.616Z,60.01
2023-03-20T02:36:21.066Z,57.91
2023-03-20T02:39:03.234Z,57.92
2023-03-20T02:41:35.018Z,58.41
2023-03-20T02:44:18.203Z,61.38
2023-03-20T02:46:46.693Z,59.42
2023-03-20T02:49:39.825Z,60.60
2023-03-20T02:52:43.020Z,59.65
2023-03-20T02:55:58.919Z,60.57
2023-03-20T02:58:33.880Z,58.66
2023-03-20T03:01:25.451Z,59.43
2023-03-20T03:03:57.430Z,62.46
2023-03-20T03:06:28.389Z,62.80
2023-03-20T03:09:06.137Z,61.99
2023-03-20T03:11:37.186Z,63.30
2023-03-20T03:14:06.665Z,63.40
2023-03-20T03:16:37.595Z,65.13
2023-03-20T03:19:10.120Z,65.22
2023-03-20T03:21:40.127Z,62.21
2023-03-20T03:24:41.643Z,63.26
2023-03-20T03:27:26.519Z,65.01
2023-03-20T03:29:59.723Z,66.47
2023-03-20T03:32:49.685Z,66.83
2023-03-20T03:35:21.044Z,67.29
2023-03-20T03:38:01.396Z,67.88
2023-03-20T03:40:39.772Z,69.85
2023-03-20T03:43:12.056Z,66.96
2023-03-20T03:45:57.482Z,67.86
2023-03-20T03:48:41.605Z,67.62
2023-03-20T03:51:13.558Z,68.29
2023-03-20T03:53:48.758Z,69.38
2023-03-20T03:56:21.233Z,66.53
2023-03-20T03:58:52.977Z,64.57
2023-03-20T04:01:23.288Z,68.57
2023-03-20T04:03:56.663Z,69.12
2023-03-20T04:06:26.376Z,69.61
2023-03-20T04:08:55.076Z,71.53
2023-03-20T04:11:24.763Z,69.81
2023-03-20T04:13:53.494Z,71.85
2023-03-20T04:16:24.068Z,71.12
2023-03-20T04:18:52.953Z,71.37
2023-03-20T04:21:22.022Z,73.23
2023-03-20T04:23:50.153Z,73.57
2023-03-20T04:26:18.760Z,74.10
2023-03-20T04:28:47.328Z,75.07
2023-03-20T04:31:15.574Z,74.08
2023-03-20T04:33:44.953Z,71.85
2023-03-20T04:36:14.071Z,71.88
2023-03-20T04:38:42.346Z,71.92
2023-03-20T04:41:10.639Z,71.26
2023-03-20T04:43:40.675Z,73.24
2023-03-20T04:46:08.976Z,72.78
2023-03-20T04:48:38.657Z,73.76
2023-03-20T04:51:07.565Z,73.66
2023-03-20T04:53:38.732Z,73.52
2023-03-20T04:56:08.835Z,74.11
2023-03-20T04:58:37.891Z,73.16
2023-03-20T05:01:06.826Z,69.30
2023-03-20T05:03:35.588Z,68.97
2023-03-20T05:06:04.315Z,70.37
2023-03-20T05:08:33.437Z,70.71
2023-03-20T05:11:02.619Z,72.75
2023-03-20T05:13:34.813Z,71.66
2023-03-20T05:16:03.406Z,71.41
2023-03-20T05:18:32.287Z,71.31
2023-03-20T05:21:03.461Z,71.35
2023-03-20T05:23:33.074Z,71.28
2023-03-20T05:26:02.003Z,73.94
2023-03-20T05:28:31.451Z,71.87
2023-03-20T05:31:01.562Z,71.85
2023-03-20T05:33:30.996Z,71.10
2023-03-20T05:35:59.793Z,73.02
2023-03-20T05:38:28.820Z,72.48
2023-03-20T05:41:02.658Z,72.75
2023-03-20T05:43:35.152Z,71.67
2023-03-20T05:46:04.475Z,70.38
2023-03-20T05:48:32.971Z,68.85
2023-03-20T05:51:06.764Z,69.94
2023-03-20T05:53:35.236Z,69.09
2023-03-20T05:56:03.602Z,67.55
2023-03-20T05:58:32.558Z,63.25
2023-03-20T06:01:01.188Z,62.71
2023-03-20T06:03:31.135Z,61.26
2023-03-20T06:06:00.790Z,62.20
2023-03-20T06:08:30.763Z,62.94
2023-03-20T06:10:59.746Z,62.17
2023-03-20T06:13:28.049Z,64.31
2023-03-20T06:15:56.729Z,62.42
2023-03-20T06:18:25.755Z,62.55
2023-03-20T06:20:55.732Z,57.08
2023-03-20T06:23:26.170Z,57.32
2023-03-20T06:25:54.850Z,59.87
2023-03-20T06:28:23.445Z,55.19
2023-03-20T06:30:55.185Z,48.60
2023-03-20T06:33:26.901Z,47.25
2023-03-20T06:35:56.343Z,47.74
2023-03-20T06:38:26.167Z,46.50
2023-03-20T06:40:54.862Z,44.84
2023-03-20T06:43:23.809Z,47.00
2023-03-20T06:45:52.986Z,46.89
2023-03-20T06:48:22.416Z,46.30
2023-03-20T06:50:51.839Z,47.44
2023-03-20T06:53:20.601Z,47.31
2023-03-20T06:55:52.179Z,43.36
2023-03-20T06:58:21.215Z,44.41
2023-03-20T07:00:50.594Z,43.89
2023-03-20T07:03:18.709Z,40.79
2023-03-20T07:05:50.828Z,42.24
2023-03-20T07:08:21.243Z,42.22
2023-03-20T07:10:50.820Z,42.67
2023-03-20T07:13:19.392Z,42.50
2023-03-20T07:16:03.078Z,41.52
2023-03-20T07:18:32.812Z,39.99
2023-03-20T07:21:03.308Z,39.98
2023-03-20T07:23:34.766Z,38.29
2023-03-20T07:26:03.760Z,38.05
2023-03-20T07:28:32.741Z,38.91
2023-03-20T07:31:02.279Z,36.54
2023-03-20T07:33:31.173Z,36.28
2023-03-20T07:36:00.370Z,36.39
2023-03-20T07:38:28.858Z,32.62
2023-03-20T07:40:59.217Z,32.31
2023-03-20T07:43:29.416Z,34.03
2023-03-20T07:46:04.969Z,33.37
2023-03-20T07:48:38.296Z,34.58
2023-03-20T07:51:07.557Z,32.07
2023-03-20T07:53:36.255Z,31.69
2023-03-20T07:56:05.489Z,35.01
2023-03-20T07:58:33.746Z,31.32
2023-03-20T08:01:07.414Z,33.34
2023-03-20T08:03:35.988Z,31.18
2023-03-20T08:06:06.694Z,32.67
2023-03-20T08:08:36.081Z,33.32
2023-03-20T08:11:04.380Z,34.30
2023-03-20T08:13:34.339Z,31.21
2023-03-20T08:16:02.961Z,31.39
2023-03-20T08:18:31.126Z,32.61
2023-03-20T08:21:00.496Z,32.35
2023-03-20T08:23:29.110Z,32.30
2023-03-20T08:25:57.590Z,32.83
2023-03-20T08:28:40.396Z,33.86
2023-03-20T08:31:16.482Z,33.27
2023-03-20T08:33:46.802Z,32.65
2023-03-20T08:36:16.236Z,33.61
2023-03-20T08:38:44.700Z,33.04
2023-03-20T08:41:13.143Z,34.00
2023-03-20T08:43:41.703Z,33.77
2023-03-20T08:46:10.153Z,31.37
2023-03-20T08:48:38.454Z,32.69
2023-03-20T08:51:07.816Z,33.55
2023-03-20T08:53:36.432Z,34.10
2023-03-20T08:56:05.564Z,35.13
2023-03-20T08:58:37.709Z,35.46
2023-03-20T09:01:12.475Z,35.06
2023-03-20T09:03:49.265Z,33.28
2023-03-20T09:06:21.831Z,33.95
2023-03-20T09:08:51.660Z,33.44
2023-03-20T09:11:21.528Z,33.85
2023-03-20T09:13:51.635Z,33.10
2023-03-20T09:16:20.384Z,32.97
2023-03-20T09:18:48.602Z,33.54
2023-03-20T09:21:17.277Z,34.40
2023-03-20T09:23:45.968Z,34.91
2023-03-20T09:26:14.160Z,33.31
2023-03-20T09:28:42.719Z,32.24
2023-03-20T09:31:12.375Z,32.22
2023-03-20T09:33:40.994Z,33.53
2023-03-20T09:36:11.957Z,32.57
2023-03-20T09:38:42.370Z,32.14
2023-03-20T09:41:27.934Z,33.16
2023-03-20T09:43:59.341Z,31.09
2023-03-20T09:47:08.718Z,31.88
2023-03-20T09:49:57.505Z,30.73
2023-03-20T09:52:53.572Z,30.89
2023-03-20T09:55:26.900Z,31.55
2023-03-20T09:57:59.477Z,30.42
2023-03-20T10:00:33.091Z,30.19
2023-03-20T10:03:07.638Z,31.12
2023-03-20T10:05:59.547Z,30.77
2023-03-20T10:08:35.071Z,30.20
2023-03-20T10:11:36.931Z,31.23
2023-03-20T10:14:34.298Z,31.03
2023-03-20T10:17:05.685Z,30.71
2023-03-20T10:19:46.155Z,31.13
2023-03-20T10:22:28.497Z,30.64
2023-03-20T10:25:23.469Z,30.60
2023-03-20T10:28:16.454Z,30.26
2023-03-20T10:30:47.679Z,30.23
2023-03-20T10:33:40.407Z,30.15
2023-03-20T10:36:19.992Z,30.60
2023-03-20T10:39:12.126Z,30.53
2023-03-20T10:41:44.494Z,29.53
2023-03-20T10:44:19.792Z,29.39
2023-03-20T10:46:53.493Z,30.22
2023-03-20T10:49:37.543Z,30.42
2023-03-20T10:52:18.651Z,30.42
2023-03-20T10:55:01.189Z,30.69
2023-03-20T10:57:34.511Z,30.40
2023-03-20T11:00:02.714Z,29.94
2023-03-20T11:02:32.539Z,30.07
2023-03-20T11:05:02.251Z,30.06
2023-03-20T11:07:36.283Z,29.02
2023-03-20T11:10:05.049Z,29.27
2023-03-20T11:12:38.020Z,30.56
2023-03-20T11:15:27.521Z,30.04
2023-03-20T11:18:00.599Z,30.73
2023-03-20T11:20:35.117Z,30.66
2023-03-20T11:23:06.475Z,31.65
2023-03-20T11:25:44.568Z,30.64
2023-03-20T11:28:43.188Z,31.10
2023-03-20T11:31:14.181Z,31.46
2023-03-20T11:34:14.673Z,31.70
2023-03-20T11:37:08.582Z,31.38
2023-03-20T11:39:40.358Z,31.44
2023-03-20T11:42:24.619Z,31.48
2023-03-20T11:45:14.167Z,31.95
2023-03-20T11:47:50.555Z,31.37
2023-03-20T11:50:35.969Z,32.39
2023-03-20T11:53:21.911Z,31.75
2023-03-20T11:56:03.991Z,31.31
2023-03-20T11:58:32.661Z,34.65
2023-03-20T12:01:02.454Z,32.22
2023-03-20T12:04:00.531Z,31.37
2023-03-20T12:06:38.120Z,32.24
2023-03-20T12:09:13.490Z,31.95
2023-03-20T12:12:11.360Z,32.49
2023-03-20T12:15:17.649Z,33.40
2023-03-20T12:17:54.557Z,33.03
2023-03-20T12:20:26.547Z,33.90
2023-03-20T12:23:10.657Z,33.38
2023-03-20T12:25:59.793Z,33.26
2023-03-20T12:28:46.786Z,33.22
2023-03-20T12:31:29.709Z,33.67
2023-03-20T12:34:02.602Z,32.51
2023-03-20T12:36:41.631Z,33.89
2023-03-20T12:39:16.390Z,33.86
2023-03-20T12:41:51.560Z,34.32
2023-03-20T12:44:47.358Z,33.54
2023-03-20T12:48:02.280Z,33.31
2023-03-20T12:50:43.512Z,33.84
2023-03-20T12:53:18.421Z,34.25
2023-03-20T12:55:52.467Z,33.91
2023-03-20T12:58:59.625Z,34.33
2023-03-20T13:01:31.978Z,34.38
2023-03-20T13:04:37.621Z,33.29
2023-03-20T13:07:20.292Z,32.26
2023-03-20T13:09:57.603Z,33.96
2023-03-20T13:12:33.306Z,32.70
2023-03-20T13:15:22.597Z,32.35
2023-03-20T13:18:09.085Z,34.22
2023-03-20T13:20:50.621Z,33.19
2023-03-20T13:23:46.877Z,33.07
2023-03-20T13:26:34.674Z,32.27
2023-03-20T13:29:21.775Z,33.58
2023-03-20T13:31:59.208Z,32.64
2023-03-20T13:34:42.690Z,33.16
2023-03-20T13:37:26.384Z,33.29
2023-03-20T13:40:23.288Z,33.42
2023-03-20T13:43:15.441Z,33.95
2023-03-20T13:45:44.100Z,34.23
2023-03-20T13:48:26.679Z,33.27
2023-03-20T13:51:06.595Z,34.75
2023-03-20T13:53:53.862Z,33.24
2023-03-20T13:56:28.259Z,34.85
2023-03-20T13:59:37.952Z,34.63
2023-03-20T14:02:41.372Z,33.95
2023-03-20T14:05:20.702Z,35.76
2023-03-20T14:07:50.569Z,35.02
2023-03-20T14:10:22.185Z,35.73
2023-03-20T14:13:01.752Z,34.31
2023-03-20T14:15:37.143Z,34.75
2023-03-20T14:18:07.184Z,34.69
2023-03-20T14:20:39.319Z,35.50
2023-03-20T14:23:08.251Z,35.96
2023-03-20T14:25:40.794Z,35.57
2023-03-20T14:28:12.593Z,35.06
2023-03-20T14:30:44.639Z,34.91
2023-03-20T14:33:16.527Z,35.04
2023-03-20T14:35:51.089Z,35.40
2023-03-20T14:38:54.100Z,35.78
2023-03-20T14:41:44.145Z,35.40
2023-03-20T14:44:23.126Z,35.58
2023-03-20T14:47:05.758Z,34.71
2023-03-20T14:49:49.742Z,36.00
2023-03-20T14:52:24.132Z,35.97
2023-03-20T14:54:55.744Z,35.34
2023-03-20T14:57:42.474Z,35.82
2023-03-20T15:00:23.117Z,36.29
2023-03-20T15:03:02.185Z,35.34
2023-03-20T15:05:33.750Z,37.04
2023-03-20T15:08:11.209Z,35.71
2023-03-20T15:10:46.892Z,36.04
2023-03-20T15:13:17.711Z,36.54
2023-03-20T15:16:07.354Z,36.63
2023-03-20T15:18:43.674Z,37.46
2023-03-20T15:21:31.459Z,37.12
2023-03-20T15:24:00.126Z,37.16
2023-03-20T15:26:29.659Z,37.55
2023-03-20T15:29:07.728Z,37.99
2023-03-20T15:31:40.823Z,37.52
2023-03-20T15:34:15.346Z,37.43
2023-03-20T15:36:43.907Z,37.48
2023-03-20T15:39:17.622Z,38.19
2023-03-20T15:41:48.358Z,38.45
2023-03-20T15:44:26.487Z,38.59
2023-03-20T15:47:12.592Z,38.32
2023-03-20T15:49:42.179Z,38.61
2023-03-20T15:52:22.512Z,38.31
2023-03-20T15:54:51.223Z,39.52
2023-03-20T15:57:41.217Z,39.11
2023-03-20T16:00:23.336Z,38.59
2023-03-20T16:02:52.003Z,38.48
2023-03-20T16:05:22.670Z,39.40
2023-03-20T16:07:50.958Z,38.58
2023-03-20T16:10:22.614Z,39.43
2023-03-20T16:12:54.756Z,39.06
2023-03-20T16:15:27.971Z,39.54
2023-03-20T16:17:59.026Z,40.39
2023-03-20T16:20:31.242Z,40.47
2023-03-20T16:23:06.139Z,41.70
2023-03-20T16:25:36.179Z,41.90
2023-03-20T16:28:09.372Z,42.78
2023-03-20T16:30:38.330Z,43.43
2023-03-20T16:33:15.907Z,43.41
2023-03-20T16:35:46.414Z,42.66
2023-03-20T16:38:25.088Z,42.63
2023-03-20T16:40:58.670Z,42.56
2023-03-20T16:43:31.273Z,42.39
2023-03-20T16:46:06.937Z,43.30
2023-03-20T16:48:41.771Z,42.69
2023-03-20T16:51:29.084Z,44.00
2023-03-20T16:53:59.471Z,44.11
2023-03-20T16:56:38.391Z,44.00
2023-03-20T16:59:18.396Z,43.83
2023-03-20T17:01:52.235Z,43.74
2023-03-20T17:04:40.746Z,43.86
2023-03-20T17:07:18.123Z,44.33
2023-03-20T17:10:00.089Z,44.37
2023-03-20T17:12:32.616Z,44.39
2023-03-20T17:15:00.871Z,44.69
2023-03-20T17:17:29.495Z,44.57
2023-03-20T17:19:59.725Z,44.79
2023-03-20T17:22:31.531Z,44.91
2023-03-20T17:25:00.159Z,44.01
2023-03-20T17:27:29.204Z,44.02
2023-03-20T17:29:58.630Z,44.76
2023-03-20T17:32:27.185Z,45.13
2023-03-20T17:34:56.856Z,45.38
2023-03-20T17:37:29.540Z,46.00
2023-03-20T17:39:58.339Z,46.38
2023-03-20T17:42:31.574Z,46.56
2023-03-20T17:45:02.836Z,47.07
2023-03-20T17:47:31.278Z,47.69
2023-03-20T17:49:59.792Z,49.69
2023-03-20T17:52:29.926Z,49.58
2023-03-20T17:54:58.103Z,50.42
2023-03-20T17:57:30.126Z,50.93
2023-03-20T17:59:58.206Z,51.40
2023-03-20T18:02:27.103Z,53.32
2023-03-20T18:04:56.926Z,53.87
2023-03-20T18:07:25.089Z,54.10
2023-03-20T18:09:53.262Z,55.17
2023-03-20T18:12:22.004Z,55.23
2023-03-20T18:14:50.138Z,56.09
2023-03-20T18:17:18.277Z,56.08
2023-03-20T18:19:46.954Z,57.56
2023-03-20T18:22:15.064Z,56.94
2023-03-20T18:24:45.458Z,57.60
2023-03-20T18:27:14.187Z,60.12
2023-03-20T18:29:42.467Z,60.93
2023-03-20T18:32:10.576Z,59.83
2023-03-20T18:34:41.750Z,61.61
2023-03-20T18:37:14.430Z,63.75
2023-03-20T18:39:43.022Z,62.97
2023-03-20T18:42:11.144Z,62.79
2023-03-20T18:44:39.270Z,63.79
2023-03-20T18:47:07.944Z,62.94
2023-03-20T18:49:38.914Z,62.67
2023-03-20T18:52:07.466Z,63.54
2023-03-20T18:54:35.639Z,64.57
2023-03-20T18:57:03.878Z,65.44
2023-03-20T18:59:32.533Z,62.58
2023-03-20T19:02:01.308Z,63.23
2023-03-20T19:04:29.634Z,63.13
2023-03-20T19:06:58.261Z,63.96
2023-03-20T19:09:26.615Z,63.27
2023-03-20T19:11:54.832Z,62.33
2023-03-20T19:14:23.529Z,61.74
2023-03-20T19:16:51.724Z,63.21
2023-03-20T19:19:19.815Z,63.53
2023-03-20T19:21:48.440Z,63.99
2023-03-20T19:24:18.344Z,64.01
2023-03-20T19:26:46.665Z,63.63
2023-03-20T19:29:15.251Z,63.66
2023-03-20T19:31:43.634Z,63.67
2023-03-20T19:34:36.854Z,63.38
2023-03-20T19:37:00.768Z,63.25
2023-03-20T19:39:28.899Z,61.91
2023-03-20T19:42:12.012Z,61.22
2023-03-20T19:44:45.750Z,60.02
2023-03-20T19:47:13.988Z,58.26
2023-03-20T19:49:42.221Z,57.30
2023-03-20T19:52:18.622Z,57.77
2023-03-20T19:55:00.203Z,57.19
2023-03-20T19:57:31.038Z,55.99
2023-03-20T20:00:39.831Z,54.66
2023-03-20T20:02:48.155Z,54.65
2023-03-20T20:05:29.140Z,54.89
2023-03-20T20:10:52.470Z,55.18
2023-03-20T20:13:23.274Z,54.16
2023-03-20T20:15:52.173Z,54.43
2023-03-20T20:18:23.253Z,55.22
2023-03-20T20:21:45.588Z,55.80
2023-03-20T20:23:42.853Z,55.40
2023-03-20T20:26:11.044Z,57.57
2023-03-20T20:28:39.145Z,58.20
2023-03-20T20:31:07.694Z,58.09
2023-03-20T20:33:36.964Z,59.50
2023-03-20T20:37:01.945Z,58.54
2023-03-20T20:39:01.207Z,59.02
2023-03-20T20:41:29.691Z,59.22
2023-03-20T20:44:15.170Z,59.75
2023-03-20T20:46:44.446Z,60.49
2023-03-20T20:49:19.171Z,61.47
2023-03-20T20:51:49.031Z,62.31
2023-03-20T20:54:17.399Z,62.37
2023-03-20T20:56:45.651Z,63.00
2023-03-20T20:59:14.698Z,63.89
2023-03-20T21:01:43.114Z,64.25
2023-03-20T21:04:11.707Z,63.94
2023-03-20T21:07:06.081Z,64.11
2023-03-20T21:09:29.200Z,64.34
2023-03-20T21:11:57.984Z,63.87
2023-03-20T21:14:26.145Z,63.75
2023-03-20T21:17:01.327Z,63.10
2023-03-20T21:19:37.355Z,62.99
2023-03-20T21:22:07.156Z,61.92
2023-03-20T21:24:36.146Z,61.66
2023-03-20T21:27:07.201Z,62.15
2023-03-20T21:29:35.957Z,61.98
2023-03-20T21:32:04.733Z,63.15
2023-03-20T21:34:33.149Z,64.35
2023-03-20T21:37:49.323Z,64.81
2023-03-20T21:39:51.810Z,65.61
2023-03-20T21:42:21.676Z,66.17
2023-03-20T21:45:59.003Z,65.63
2023-03-20T21:51:09.642Z,67.26
2023-03-20T21:59:34.833Z,69.29
2023-03-20T22:02:04.871Z,69.29
2023-03-20T22:05:18.682Z,69.58
2023-03-20T22:07:50.742Z,69.92
2023-03-20T22:13:54.739Z,70.35
2023-03-20T22:16:27.005Z,70.83
2023-03-20T22:19:32.682Z,70.81
2023-03-20T22:22:00.176Z,71.43
2023-03-20T22:24:55.015Z,71.82
2023-03-20T22:30:31.345Z,72.07
2023-03-20T22:44:41.754Z,69.31
2023-03-20T22:46:45.749Z,69.90
2023-03-20T22:49:15.881Z,68.83
2023-03-20T22:52:02.922Z,68.43
2023-03-20T22:54:32.483Z,69.56
2023-03-20T22:57:01.552Z,68.80
2023-03-20T22:59:29.734Z,67.81
2023-03-20T23:01:58.252Z,67.81
2023-03-20T23:04:45.189Z,68.30
2023-03-20T23:07:32.158Z,67.41
2023-03-20T23:10:00.860Z,68.97
2023-03-20T23:12:29.461Z,68.26
2023-03-20T23:14:57.935Z,68.29
2023-03-20T23:17:27.359Z,69.09
2023-03-20T23:20:08.646Z,68.70
2023-03-20T23:22:39.604Z,68.48
2023-03-20T23:25:23.811Z,68.45
2023-03-20T23:27:59.183Z,68.11
2023-03-20T23:30:37.674Z,68.81
2023-03-20T23:33:09.979Z,67.63
2023-03-20T23:35:38.485Z,67.31
2023-03-20T23:38:06.706Z,67.08
2023-03-20T23:40:35.537Z,67.04
2023-03-20T23:43:04.322Z,66.93
2023-03-20T23:45:32.452Z,67.28
2023-03-20T23:48:00.708Z,67.61
2023-03-20T23:56:08.089Z,66.59
2023-03-20T23:58:39.543Z,66.56
